Simanggang, Malaysia
Current Conditions -  °F | °C
As of 4:00 AM on Sunday 21 Dec 2014 (Local Time) from WBGY Reporting Station
Moderate Rain Moderate Rain  
Wind Chill: 73°   Ceiling: 15000
Heat Index: 73°   Visibility: 5mi
Dew Point: 73°   Wind: 1mph
Humidity: 100%   Direction: 310°NW
Pressure: 29.8"   Gusts: NA
Location:  1.23°N, 111.45°E
Report Text: WBGY 202000Z 31001KT 8000 RA SCT020 BKN150 23/23 Q1009
Loading
Personal Weather Stations






























Interactive Weather Map New forecast layout! Learn more

10-Day Weather Forecast

Advertisements
Track Severe Weather on mobile